Albany, New York
Traffic Map
Current Weather Conditions
Albany, New York
Overcast
Overcast
31°
Feels Like: 32°
Wind Chill: 31° Ceiling: 15000
Heat Index: 32° Visibility: 10mi
Dew Point: 19° Wind: 14mph
Humidity: 51% Direction: 180° (S)
Pressure: 29.7in Gusts: 0mph
Raw Report DataKALB 222151Z 18012KT 10SM FEW055 SCT085 BKN150 OVC270 31/19 A2970 RMK AO2 SLP054 T03060194
Traffic Incident Summary
Active as of:
Severity:
Category:
InformationThere was an issue retrieving the traffic information for this location. Please try a different location or try again shortly.
Advertisements